Time;durP1;ratioP1;P1;durP2;ratioP2;P2;SDS_P1;SDS_P2;PMS_P1;PMS_P2;Temp;Humidity;BMP_temperature;BMP_pressure;BME280_temperature;BME280_humidity;BME280_pressure;Samples;Min_cycle;Max_cycle;Signal;HPM_P1;HPM_P2
2023/04/30 00:00:09;;;;;;;12.33;7.03;;;10.20;99.90;;;;;;5073402;28;20212;-59
2023/04/30 00:02:36;;;;;;;11.00;7.50;;;10.20;99.90;;;;;;5071004;28;20221;-61
2023/04/30 00:05:03;;;;;;;11.70;8.00;;;10.10;99.90;;;;;;5073884;28;20983;-58
2023/04/30 00:07:31;;;;;;;11.37;8.20;;;10.00;99.90;;;;;;5073157;28;20198;-58
2023/04/30 00:09:57;;;;;;;10.67;8.17;;;10.10;99.90;;;;;;5073334;28;20454;-59
2023/04/30 00:12:24;;;;;;;9.03;7.60;;;10.10;99.90;;;;;;5055133;28;20729;-58
2023/04/30 00:14:51;;;;;;;11.70;8.07;;;10.10;99.90;;;;;;5068149;28;20236;-58
2023/04/30 00:17:18;;;;;;;8.87;7.07;;;10.10;99.90;;;;;;5070130;28;20428;-58
2023/04/30 00:19:45;;;;;;;16.43;8.93;;;10.00;99.90;;;;;;5055305;28;20223;-59
2023/04/30 00:22:12;;;;;;;11.97;7.47;;;9.90;99.90;;;;;;5050433;28;20370;-59
2023/04/30 00:24:39;;;;;;;13.13;7.97;;;9.80;99.90;;;;;;5071171;28;20205;-59
2023/04/30 00:27:06;;;;;;;11.27;7.87;;;9.80;99.90;;;;;;5038711;28;20610;-60
2023/04/30 00:29:32;;;;;;;11.87;7.77;;;9.90;99.90;;;;;;5052564;28;20205;-61
2023/04/30 00:31:59;;;;;;;8.77;7.10;;;10.00;99.90;;;;;;5070817;28;20251;-61
2023/04/30 00:34:26;;;;;;;11.47;7.73;;;10.00;99.90;;;;;;5053087;28;20209;-61
2023/04/30 00:36:53;;;;;;;7.97;7.10;;;10.00;99.90;;;;;;5073216;28;20294;-61
2023/04/30 00:39:20;;;;;;;11.33;6.90;;;10.00;99.90;;;;;;5072299;28;20738;-61
2023/04/30 00:41:47;;;;;;;9.80;7.37;;;10.00;99.90;;;;;;5074008;28;20209;-61
2023/04/30 00:44:13;;;;;;;11.57;7.40;;;9.80;99.90;;;;;;5072091;28;20276;-61
2023/04/30 00:46:41;;;;;;;13.23;8.50;;;9.80;99.90;;;;;;5069323;28;20252;-61
2023/04/30 00:49:08;;;;;;;14.87;7.97;;;9.80;99.90;;;;;;5071605;28;20290;-61
2023/04/30 00:51:35;;;;;;;13.30;7.83;;;9.70;99.90;;;;;;5054911;28;20668;-61
2023/04/30 00:54:02;;;;;;;12.00;8.23;;;9.80;99.90;;;;;;5071023;28;20611;-61
2023/04/30 00:56:30;;;;;;;14.17;7.70;;;9.60;99.90;;;;;;5068054;28;20202;-58
2023/04/30 00:58:57;;;;;;;11.13;7.40;;;9.80;99.90;;;;;;5071261;28;20214;-59
2023/04/30 01:01:27;;;;;;;11.77;7.93;;;9.70;99.90;;;;;;5074557;28;21048;-58
2023/04/30 01:03:54;;;;;;;13.77;8.50;;;9.70;99.90;;;;;;5052458;28;20254;-61
2023/04/30 01:06:21;;;;;;;11.40;7.63;;;9.60;99.90;;;;;;5057075;28;20806;-61
2023/04/30 01:08:48;;;;;;;9.67;7.60;;;9.70;99.90;;;;;;5074904;28;21245;-61
2023/04/30 01:11:50;;;;;;;13.77;7.57;;;9.60;99.90;;;;;;5061827;28;20238;-61
2023/04/30 01:14:21;;;;;;;10.70;7.57;;;9.50;99.90;;;;;;5079839;28;20572;-61
2023/04/30 01:17:30;;;;;;;17.50;7.93;;;9.50;99.90;;;;;;5078935;28;20324;-59
2023/04/30 01:19:57;;;;;;;10.77;8.00;;;9.50;99.90;;;;;;4988900;28;20235;-59
2023/04/30 01:22:24;;;;;;;13.80;8.23;;;9.60;99.90;;;;;;5003554;28;20759;-59
2023/04/30 01:25:34;;;;;;;10.93;7.97;;;9.50;99.90;;;;;;5002464;28;20218;-59
2023/04/30 01:28:05;;;;;;;10.27;7.13;;;9.40;99.90;;;;;;4998847;28;20228;-59
2023/04/30 01:30:33;;;;;;;11.70;8.30;;;9.20;99.90;;;;;;5001041;28;20247;-61
2023/04/30 01:33:01;;;;;;;10.93;7.93;;;9.30;99.90;;;;;;4996504;28;20217;-61
2023/04/30 01:35:55;;;;;;;11.17;8.10;;;9.30;99.90;;;;;;4992959;28;20211;-61
2023/04/30 01:38:53;;;;;;;11.83;7.67;;;9.30;99.90;;;;;;5002624;28;20217;-61
2023/04/30 01:41:34;;;;;;;9.80;7.80;;;9.30;99.90;;;;;;4982265;28;20212;-63
2023/04/30 01:44:08;;;;;;;9.90;7.73;;;9.30;99.90;;;;;;5000690;28;20204;-61
2023/04/30 01:46:35;;;;;;;11.47;8.07;;;9.30;99.90;;;;;;4987499;28;20806;-61
2023/04/30 01:49:17;;;;;;;12.33;8.03;;;9.30;99.90;;;;;;4999487;28;20204;-61
2023/04/30 01:51:47;;;;;;;10.57;7.43;;;9.40;99.90;;;;;;5069961;28;20202;-63
2023/04/30 01:54:17;;;;;;;12.70;7.57;;;9.40;99.90;;;;;;5077710;28;20213;-61
2023/04/30 01:57:09;;;;;;;9.33;6.67;;;9.40;99.90;;;;;;5077698;28;20198;-61
2023/04/30 01:59:39;;;;;;;10.30;7.43;;;9.40;99.90;;;;;;5077310;28;20223;-61
2023/04/30 02:02:06;;;;;;;12.17;7.50;;;9.30;99.90;;;;;;5078350;28;21011;-61
2023/04/30 02:04:33;;;;;;;11.53;7.43;;;9.30;99.90;;;;;;5059678;28;20211;-61
2023/04/30 02:07:00;;;;;;;10.07;8.03;;;9.30;99.90;;;;;;5058097;28;20201;-61
2023/04/30 02:09:27;;;;;;;10.70;7.47;;;9.40;99.90;;;;;;5077719;28;20269;-58
2023/04/30 02:11:53;;;;;;;10.63;7.47;;;9.30;99.90;;;;;;5058924;28;20637;-59
2023/04/30 02:14:20;;;;;;;10.20;7.30;;;9.30;99.90;;;;;;5076914;28;20664;-59
2023/04/30 02:16:47;;;;;;;10.03;7.27;;;9.30;99.90;;;;;;5079537;28;20283;-59
2023/04/30 02:19:14;;;;;;;10.20;7.47;;;9.20;99.90;;;;;;5058956;28;20749;-59
2023/04/30 02:21:41;;;;;;;12.73;7.87;;;9.20;99.90;;;;;;5059730;28;20201;-59
2023/04/30 02:24:08;;;;;;;9.73;7.53;;;9.20;99.90;;;;;;5072538;28;20251;-60
2023/04/30 02:26:35;;;;;;;12.63;7.40;;;9.20;99.90;;;;;;5076705;28;20251;-61
2023/04/30 02:29:02;;;;;;;10.20;7.17;;;9.30;99.90;;;;;;5075678;28;20248;-61
2023/04/30 02:31:28;;;;;;;10.07;7.43;;;9.30;99.90;;;;;;5077296;28;20597;-61
2023/04/30 02:33:55;;;;;;;12.53;7.40;;;9.20;99.90;;;;;;5063070;28;20236;-61
2023/04/30 02:36:22;;;;;;;9.63;7.07;;;9.20;99.90;;;;;;5073049;28;20380;-62
2023/04/30 02:38:49;;;;;;;10.33;7.07;;;9.20;99.90;;;;;;5043232;28;20207;-58
2023/04/30 02:41:16;;;;;;;8.80;6.87;;;9.20;99.90;;;;;;5077042;28;20204;-61
2023/04/30 02:43:43;;;;;;;8.60;7.03;;;9.20;99.90;;;;;;5073029;28;20252;-61
2023/04/30 02:46:10;;;;;;;12.20;7.00;;;9.20;99.90;;;;;;5077274;28;20203;-61
2023/04/30 02:48:36;;;;;;;11.23;6.97;;;9.10;99.90;;;;;;5056052;28;20199;-61
2023/04/30 02:51:04;;;;;;;9.37;6.90;;;9.00;99.90;;;;;;5043487;28;20203;-61
2023/04/30 02:53:30;;;;;;;9.50;6.87;;;8.90;99.90;;;;;;5075733;28;20204;-61
2023/04/30 02:55:58;;;;;;;9.50;7.03;;;8.90;99.90;;;;;;5057443;28;20562;-61
2023/04/30 02:58:25;;;;;;;11.50;7.20;;;8.90;99.90;;;;;;5075458;28;20630;-61
2023/04/30 03:00:52;;;;;;;14.30;7.60;;;8.80;99.90;;;;;;5072677;28;20199;-61
2023/04/30 03:03:19;;;;;;;11.33;7.33;;;8.90;99.90;;;;;;5057910;28;20206;-61
2023/04/30 03:05:46;;;;;;;10.40;6.87;;;8.90;99.90;;;;;;5076600;28;20195;-61
2023/04/30 03:08:13;;;;;;;9.67;7.03;;;8.90;99.90;;;;;;5068613;28;20231;-61
2023/04/30 03:10:40;;;;;;;11.40;7.37;;;8.90;99.90;;;;;;5075471;28;20262;-61
2023/04/30 03:13:07;;;;;;;10.87;7.27;;;8.80;99.90;;;;;;5074700;28;20703;-65
2023/04/30 03:15:34;;;;;;;9.43;6.87;;;8.80;99.90;;;;;;5059274;28;20244;-61
2023/04/30 03:18:01;;;;;;;13.17;8.10;;;8.80;99.90;;;;;;5074547;28;20273;-61
2023/04/30 03:20:28;;;;;;;12.50;8.53;;;8.80;99.90;;;;;;5076813;28;20256;-61
2023/04/30 03:22:54;;;;;;;11.67;8.40;;;8.80;99.90;;;;;;5074871;28;20210;-61
2023/04/30 03:25:21;;;;;;;15.27;9.30;;;8.60;99.90;;;;;;5076374;28;20201;-62
2023/04/30 03:27:48;;;;;;;14.27;8.57;;;8.60;99.90;;;;;;5078165;28;20241;-61
2023/04/30 03:30:15;;;;;;;10.57;8.03;;;8.40;99.90;;;;;;5077060;28;20577;-59
2023/04/30 03:32:42;;;;;;;12.67;8.13;;;8.30;99.90;;;;;;5073697;28;20223;-59
2023/04/30 03:35:09;;;;;;;13.20;8.93;;;8.30;99.90;;;;;;5074129;28;20206;-59
2023/04/30 03:37:36;;;;;;;11.03;7.23;;;8.20;99.90;;;;;;5076082;28;20297;-59
2023/04/30 03:40:03;;;;;;;12.67;8.60;;;8.20;99.90;;;;;;5074903;28;20221;-59
2023/04/30 03:42:30;;;;;;;11.30;7.50;;;8.30;99.90;;;;;;5058968;28;20208;-59
2023/04/30 03:44:57;;;;;;;10.80;7.93;;;8.30;99.90;;;;;;5078196;28;20199;-59
2023/04/30 03:47:24;;;;;;;14.33;8.73;;;8.40;99.90;;;;;;5074296;28;20203;-60
2023/04/30 03:49:53;;;;;;;9.93;7.33;;;8.40;99.90;;;;;;5055924;28;20289;-59
2023/04/30 03:52:22;;;;;;;12.03;8.27;;;8.50;99.90;;;;;;5035325;28;20255;-59
2023/04/30 03:54:49;;;;;;;10.93;7.93;;;8.50;99.90;;;;;;5073306;28;20207;-59
2023/04/30 03:57:16;;;;;;;14.97;8.70;;;8.40;99.90;;;;;;5053993;28;20665;-59
2023/04/30 03:59:42;;;;;;;10.20;7.60;;;8.40;99.90;;;;;;5057788;28;20200;-59
2023/04/30 04:02:09;;;;;;;11.13;7.70;;;8.40;99.90;;;;;;5075927;28;20247;-59
2023/04/30 04:04:36;;;;;;;8.57;7.10;;;8.30;99.90;;;;;;5072107;28;20588;-59
2023/04/30 04:07:03;;;;;;;12.13;7.87;;;8.30;99.90;;;;;;5073253;28;20231;-59
2023/04/30 04:09:30;;;;;;;9.73;7.30;;;8.40;99.90;;;;;;5054453;28;20817;-60
2023/04/30 04:11:57;;;;;;;12.10;7.40;;;8.30;99.90;;;;;;5055172;28;20215;-59
2023/04/30 04:14:24;;;;;;;14.33;8.07;;;8.30;99.90;;;;;;5057661;28;20647;-59
2023/04/30 04:16:51;;;;;;;11.53;8.33;;;8.30;99.90;;;;;;5076046;28;20695;-59
2023/04/30 04:19:18;;;;;;;10.37;7.73;;;8.30;99.90;;;;;;5076364;28;20303;-59
2023/04/30 04:21:45;;;;;;;11.97;7.37;;;8.30;99.90;;;;;;5058949;28;20559;-59
2023/04/30 04:24:11;;;;;;;9.57;7.77;;;8.40;99.90;;;;;;5059060;28;20611;-59
2023/04/30 04:26:38;;;;;;;11.97;7.90;;;8.50;99.90;;;;;;5074385;28;20690;-59
2023/04/30 04:29:08;;;;;;;12.87;7.63;;;8.50;99.90;;;;;;5076630;28;20702;-59
2023/04/30 04:31:34;;;;;;;10.97;7.47;;;8.50;99.90;;;;;;5076485;28;20199;-59
2023/04/30 04:34:03;;;;;;;11.03;8.13;;;8.40;99.90;;;;;;5056733;28;20698;-59
2023/04/30 04:36:32;;;;;;;10.97;7.80;;;8.50;99.90;;;;;;5076951;28;20563;-60
2023/04/30 04:39:03;;;;;;;11.50;8.50;;;8.50;99.90;;;;;;5077420;28;20214;-59
2023/04/30 04:41:31;;;;;;;11.00;8.00;;;8.50;99.90;;;;;;5053465;28;20230;-60
2023/04/30 04:44:00;;;;;;;10.13;7.93;;;8.60;99.90;;;;;;5075668;28;20289;-63
2023/04/30 04:46:28;;;;;;;12.07;8.40;;;8.60;99.90;;;;;;5081073;28;20213;-60
2023/04/30 04:48:55;;;;;;;11.23;8.03;;;8.60;99.90;;;;;;5078821;28;20205;-59
2023/04/30 04:51:22;;;;;;;11.27;8.70;;;8.60;99.90;;;;;;5062081;28;20205;-60
2023/04/30 04:53:50;;;;;;;12.93;8.80;;;8.60;99.90;;;;;;5080783;28;20214;-63
2023/04/30 04:56:16;;;;;;;12.00;8.20;;;8.60;99.90;;;;;;5079302;28;20215;-60
2023/04/30 04:58:44;;;;;;;11.20;7.70;;;8.70;99.90;;;;;;5080013;28;20217;-59
2023/04/30 05:01:11;;;;;;;12.30;7.67;;;8.70;99.90;;;;;;5080248;28;20230;-59
2023/04/30 05:03:38;;;;;;;12.77;8.30;;;8.70;99.90;;;;;;5076627;28;20221;-63
2023/04/30 05:06:05;;;;;;;10.47;7.60;;;8.70;99.90;;;;;;5082636;28;20218;-60
2023/04/30 05:08:32;;;;;;;12.00;8.00;;;8.80;99.90;;;;;;5078442;28;20276;-59
2023/04/30 05:10:59;;;;;;;10.80;8.40;;;8.80;99.90;;;;;;5037897;28;20245;-59
2023/04/30 05:13:25;;;;;;;10.93;8.93;;;8.80;99.90;;;;;;5075339;28;20704;-59
2023/04/30 05:15:53;;;;;;;12.30;7.30;;;8.90;99.90;;;;;;5042447;28;20672;-59
2023/04/30 05:18:20;;;;;;;10.57;7.97;;;8.90;99.90;;;;;;5074496;28;20322;-60
2023/04/30 05:20:47;;;;;;;10.30;7.30;;;8.90;99.90;;;;;;5075466;28;20222;-61
2023/04/30 05:23:14;;;;;;;10.20;7.90;;;8.90;99.90;;;;;;5079028;28;20281;-59
2023/04/30 05:25:41;;;;;;;13.73;8.53;;;9.00;99.90;;;;;;5080199;28;20204;-62
2023/04/30 05:28:08;;;;;;;10.50;8.27;;;9.00;99.90;;;;;;5077198;28;20281;-59
2023/04/30 05:30:35;;;;;;;10.67;7.93;;;9.10;99.90;;;;;;5078158;28;20256;-59
2023/04/30 05:33:02;;;;;;;11.67;8.30;;;9.10;99.90;;;;;;5074384;28;20247;-59
2023/04/30 05:35:30;;;;;;;13.67;8.33;;;9.20;99.90;;;;;;5078843;28;20286;-59
2023/04/30 05:37:57;;;;;;;11.47;8.30;;;9.30;99.90;;;;;;5077634;28;20200;-59
2023/04/30 05:40:24;;;;;;;11.17;8.37;;;9.30;99.90;;;;;;5045242;28;20594;-59
2023/04/30 05:42:51;;;;;;;11.10;8.33;;;9.30;99.90;;;;;;5073970;28;20242;-59
2023/04/30 05:45:18;;;;;;;14.37;8.33;;;9.30;99.90;;;;;;5079489;28;20206;-59
2023/04/30 05:47:44;;;;;;;12.40;8.03;;;9.40;99.90;;;;;;5060741;28;20206;-59
2023/04/30 05:50:11;;;;;;;11.77;8.40;;;9.40;99.90;;;;;;5076811;28;20250;-59
2023/04/30 05:52:38;;;;;;;12.43;8.13;;;9.50;99.90;;;;;;5059343;28;20196;-59
2023/04/30 05:55:06;;;;;;;13.37;8.03;;;9.60;99.90;;;;;;5078944;28;20216;-59
2023/04/30 05:57:34;;;;;;;12.23;8.07;;;9.70;99.90;;;;;;5058359;28;20202;-59
2023/04/30 06:00:01;;;;;;;13.13;8.37;;;9.80;99.90;;;;;;5073982;28;20567;-59
2023/04/30 06:02:28;;;;;;;10.37;8.20;;;9.80;99.90;;;;;;5065637;28;20626;-60
2023/04/30 06:04:55;;;;;;;11.43;7.70;;;9.90;99.90;;;;;;5074043;28;20208;-60
2023/04/30 06:07:22;;;;;;;11.37;8.90;;;9.90;99.90;;;;;;5077028;28;20234;-61
2023/04/30 06:09:49;;;;;;;10.97;7.90;;;9.90;99.90;;;;;;5077854;28;20227;-60
2023/04/30 06:12:16;;;;;;;10.63;7.77;;;9.90;99.90;;;;;;5060669;28;20226;-60
2023/04/30 06:14:44;;;;;;;11.77;7.67;;;9.90;99.90;;;;;;5078049;28;20215;-60
2023/04/30 06:17:12;;;;;;;9.77;7.40;;;10.00;99.90;;;;;;5079136;28;20501;-61
2023/04/30 06:19:39;;;;;;;8.77;6.60;;;10.00;99.90;;;;;;5078376;28;20224;-60
2023/04/30 06:22:06;;;;;;;9.87;7.37;;;10.10;99.90;;;;;;5076068;28;20191;-60
2023/04/30 06:24:32;;;;;;;10.77;7.30;;;10.20;99.90;;;;;;5075104;28;20294;-60
2023/04/30 06:27:00;;;;;;;11.63;7.30;;;10.40;99.90;;;;;;5062090;28;20198;-60
2023/04/30 06:29:27;;;;;;;9.80;7.60;;;10.50;99.90;;;;;;4717582;28;10000564;-60
2023/04/30 06:31:54;;;;;;;10.33;7.60;;;10.60;99.90;;;;;;5069369;28;20270;-60
2023/04/30 06:34:21;;;;;;;9.93;7.73;;;10.90;99.90;;;;;;5069241;28;20311;-60
2023/04/30 06:36:48;;;;;;;9.10;7.00;;;11.00;99.90;;;;;;5054674;28;20206;-60
2023/04/30 06:39:15;;;;;;;7.83;6.73;;;11.30;99.90;;;;;;5075733;28;20199;-60
2023/04/30 06:41:42;;;;;;;7.47;6.70;;;11.40;99.90;;;;;;5073997;28;20339;-60
2023/04/30 06:44:09;;;;;;;11.60;6.70;;;11.30;99.90;;;;;;5072955;28;20740;-60
2023/04/30 06:46:36;;;;;;;8.83;6.30;;;11.40;99.90;;;;;;5074732;28;20215;-60
2023/04/30 06:49:03;;;;;;;8.87;6.63;;;11.50;99.90;;;;;;5055199;28;20682;-60
2023/04/30 06:51:30;;;;;;;11.73;7.30;;;11.60;99.90;;;;;;5074287;28;20304;-60
2023/04/30 06:53:57;;;;;;;8.70;6.60;;;11.70;99.90;;;;;;5075336;28;20208;-60
2023/04/30 06:56:24;;;;;;;9.60;6.70;;;11.80;99.90;;;;;;5074440;28;20696;-60
2023/04/30 06:58:51;;;;;;;13.17;7.00;;;11.70;99.90;;;;;;5074896;28;20310;-60
2023/04/30 07:01:18;;;;;;;9.30;7.30;;;11.90;99.90;;;;;;5075086;28;20689;-60
2023/04/30 07:03:45;;;;;;;9.93;6.83;;;12.00;99.90;;;;;;5052229;28;20207;-60
2023/04/30 07:06:12;;;;;;;10.63;7.13;;;11.90;99.90;;;;;;5073237;28;20208;-60
2023/04/30 07:08:40;;;;;;;7.73;6.57;;;12.30;99.90;;;;;;5077760;28;20208;-60
2023/04/30 07:11:07;;;;;;;10.90;6.53;;;12.40;99.90;;;;;;5076053;28;22747;-60
2023/04/30 07:13:33;;;;;;;11.13;6.90;;;12.50;99.90;;;;;;5073668;28;20225;-60
2023/04/30 07:16:00;;;;;;;10.17;7.00;;;12.90;99.90;;;;;;5057583;28;20665;-60
2023/04/30 07:18:27;;;;;;;10.43;6.73;;;13.00;99.90;;;;;;5074785;28;20305;-60
2023/04/30 07:20:54;;;;;;;8.43;6.60;;;13.00;99.90;;;;;;5052840;28;20641;-60
2023/04/30 07:23:21;;;;;;;8.90;6.80;;;13.10;99.90;;;;;;5053476;28;20203;-60
2023/04/30 07:25:48;;;;;;;10.30;6.70;;;13.30;99.90;;;;;;5074894;28;20213;-60
2023/04/30 07:28:15;;;;;;;9.83;7.47;;;13.30;99.90;;;;;;5071721;28;20204;-60
2023/04/30 07:30:42;;;;;;;9.63;7.17;;;13.70;99.90;;;;;;5072187;28;20210;-61
2023/04/30 07:33:09;;;;;;;9.93;6.70;;;13.70;99.90;;;;;;5067419;28;20243;-60
2023/04/30 07:35:35;;;;;;;7.97;6.87;;;13.60;99.90;;;;;;5068271;28;20218;-60
2023/04/30 07:38:04;;;;;;;8.63;7.20;;;13.80;99.90;;;;;;5069473;28;21474;-61
2023/04/30 07:40:31;;;;;;;9.43;7.10;;;13.70;99.90;;;;;;5057505;28;20203;-60
2023/04/30 07:43:03;;;;;;;10.73;7.37;;;13.80;99.90;;;;;;5072607;28;20223;-60
2023/04/30 07:45:33;;;;;;;9.70;7.50;;;13.70;99.90;;;;;;5070775;28;20383;-60
2023/04/30 07:48:00;;;;;;;9.73;7.57;;;13.60;99.90;;;;;;5066017;28;20208;-60
2023/04/30 07:50:32;;;;;;;9.50;7.37;;;13.80;99.90;;;;;;5053614;28;20665;-60
2023/04/30 07:53:00;;;;;;;11.93;7.50;;;13.90;99.90;;;;;;5049606;28;20263;-60
2023/04/30 07:55:28;;;;;;;10.90;7.83;;;14.10;99.90;;;;;;5071151;28;20215;-60
2023/04/30 07:57:54;;;;;;;7.97;7.17;;;14.30;99.90;;;;;;5054472;28;20304;-60
2023/04/30 08:00:21;;;;;;;10.13;7.23;;;14.60;99.90;;;;;;5067136;28;20206;-60
2023/04/30 08:02:49;;;;;;;8.40;6.70;;;15.00;99.90;;;;;;5019776;28;20206;-60
2023/04/30 08:05:16;;;;;;;9.80;6.80;;;15.00;99.90;;;;;;5055580;28;20670;-60
2023/04/30 08:07:43;;;;;;;11.40;8.00;;;15.10;99.90;;;;;;5055317;28;20601;-60
2023/04/30 08:10:10;;;;;;;8.97;7.13;;;14.90;99.90;;;;;;5053883;28;20235;-60
2023/04/30 08:12:37;;;;;;;11.07;7.27;;;14.70;99.90;;;;;;5052274;28;20197;-60
2023/04/30 08:15:06;;;;;;;11.27;7.50;;;14.90;99.90;;;;;;5050951;28;20215;-60
2023/04/30 08:17:33;;;;;;;7.43;6.47;;;15.10;99.90;;;;;;5051189;28;20303;-60
2023/04/30 08:20:02;;;;;;;9.67;7.43;;;15.20;99.90;;;;;;5052461;28;20588;-60
2023/04/30 08:22:29;;;;;;;9.47;7.17;;;15.30;99.90;;;;;;5054516;28;20279;-60
2023/04/30 08:24:57;;;;;;;8.57;6.47;;;15.50;99.90;;;;;;5047672;28;20292;-60
2023/04/30 08:27:24;;;;;;;10.00;7.43;;;15.80;99.90;;;;;;5049589;28;20290;-60
2023/04/30 08:29:50;;;;;;;13.43;7.43;;;16.20;99.90;;;;;;5046283;28;20236;-61
2023/04/30 08:32:18;;;;;;;7.93;6.10;;;16.40;99.90;;;;;;5050979;28;20225;-60
2023/04/30 08:34:45;;;;;;;8.37;7.17;;;16.70;99.90;;;;;;5051480;28;20586;-60
2023/04/30 08:37:12;;;;;;;8.73;6.70;;;16.70;99.90;;;;;;5052816;28;20249;-60
2023/04/30 08:39:39;;;;;;;9.30;7.30;;;16.80;99.90;;;;;;5055027;28;20239;-60
2023/04/30 08:42:08;;;;;;;9.87;7.23;;;16.40;99.90;;;;;;5050778;28;20206;-60
2023/04/30 08:44:42;;;;;;;7.73;6.77;;;16.30;99.90;;;;;;5050234;28;20307;-60
2023/04/30 08:47:13;;;;;;;9.63;7.17;;;16.50;99.90;;;;;;5046693;28;20653;-60
2023/04/30 08:49:40;;;;;;;9.77;6.73;;;16.60;99.90;;;;;;5053238;28;20259;-60
2023/04/30 08:52:08;;;;;;;7.97;6.73;;;17.00;99.90;;;;;;5051538;28;20234;-59
2023/04/30 08:54:35;;;;;;;7.17;6.47;;;16.50;99.90;;;;;;5050112;28;20289;-59
2023/04/30 08:57:03;;;;;;;7.53;6.70;;;16.70;99.90;;;;;;5054774;28;20205;-59
2023/04/30 08:59:30;;;;;;;10.90;7.70;;;17.10;99.90;;;;;;5050764;28;20281;-61
2023/04/30 09:01:59;;;;;;;8.23;7.23;;;17.30;99.90;;;;;;5046847;28;20256;-61
2023/04/30 09:04:27;;;;;;;10.10;7.27;;;17.40;99.90;;;;;;5051500;28;20225;-61
2023/04/30 09:06:57;;;;;;;6.50;5.87;;;17.60;99.90;;;;;;5053119;28;20233;-61
2023/04/30 09:09:29;;;;;;;9.13;6.20;;;17.40;99.90;;;;;;5055165;28;20243;-59
2023/04/30 09:12:13;;;;;;;9.50;6.90;;;17.40;99.90;;;;;;5053823;28;20285;-59
2023/04/30 09:15:02;;;;;;;9.47;6.73;;;17.20;99.90;;;;;;5048488;28;20770;-59
2023/04/30 09:17:30;;;;;;;8.37;7.13;;;17.40;99.90;;;;;;5048028;28;20215;-61
2023/04/30 09:20:10;;;;;;;6.87;6.13;;;17.10;99.90;;;;;;5052115;28;20231;-61
2023/04/30 09:22:39;;;;;;;7.90;5.87;;;17.20;99.90;;;;;;5048050;28;20272;-61
2023/04/30 09:25:08;;;;;;;7.20;6.17;;;17.10;99.90;;;;;;5051287;28;20228;-61
2023/04/30 09:27:35;;;;;;;7.30;6.00;;;17.50;99.90;;;;;;5052183;28;20296;-61
2023/04/30 09:30:03;;;;;;;6.07;5.47;;;17.80;99.90;;;;;;5047974;28;20310;-61
2023/04/30 09:32:30;;;;;;;6.80;5.30;;;17.50;99.90;;;;;;5056634;28;20719;-59
2023/04/30 09:34:57;;;;;;;5.47;4.93;;;17.80;99.90;;;;;;5053666;28;20224;-59
2023/04/30 09:37:37;;;;;;;10.30;6.07;;;18.10;99.90;;;;;;5045332;28;20203;-59
2023/04/30 09:40:05;;;;;;;7.20;6.10;;;18.00;99.90;;;;;;5053331;28;20655;-59
2023/04/30 09:42:32;;;;;;;6.93;5.87;;;18.10;99.90;;;;;;5052460;28;20213;-59
2023/04/30 09:44:59;;;;;;;6.90;5.77;;;18.20;99.90;;;;;;5054612;28;20544;-59
2023/04/30 09:47:30;;;;;;;6.80;5.90;;;18.40;99.90;;;;;;5036468;28;20227;-59
2023/04/30 09:49:59;;;;;;;7.27;6.10;;;18.30;99.90;;;;;;5055201;28;20569;-59
2023/04/30 09:52:26;;;;;;;6.13;5.00;;;18.40;99.90;;;;;;5053023;28;20211;-60
2023/04/30 09:54:53;;;;;;;6.67;5.50;;;18.70;99.90;;;;;;5054183;28;20251;-59
2023/04/30 09:57:22;;;;;;;6.70;5.97;;;18.60;99.90;;;;;;5054225;28;20210;-59
2023/04/30 09:59:51;;;;;;;5.37;4.30;;;18.50;99.90;;;;;;5054113;28;20527;-59
2023/04/30 10:02:22;;;;;;;4.97;4.27;;;18.20;99.90;;;;;;5049730;28;20650;-59
2023/04/30 10:04:58;;;;;;;5.93;4.67;;;18.20;99.90;;;;;;5052635;28;20832;-59
2023/04/30 10:07:32;;;;;;;6.30;5.13;;;18.10;99.90;;;;;;5054166;28;20206;-59
2023/04/30 10:10:06;;;;;;;4.57;4.10;;;17.80;99.90;;;;;;5064481;28;20241;-60
2023/04/30 10:12:33;;;;;;;4.87;4.10;;;18.00;99.90;;;;;;5072318;28;20205;-59
2023/04/30 10:15:23;;;;;;;4.07;3.53;;;18.30;99.90;;;;;;5075396;28;20218;-59
2023/04/30 10:18:04;;;;;;;4.77;3.93;;;18.60;99.90;;;;;;5073277;28;20302;-59
2023/04/30 10:20:35;;;;;;;4.20;3.50;;;18.50;99.90;;;;;;5074919;28;20202;-59
2023/04/30 10:23:02;;;;;;;5.00;4.50;;;18.60;99.90;;;;;;5071335;28;20298;-59
2023/04/30 10:25:30;;;;;;;5.80;4.93;;;18.00;99.90;;;;;;5071535;28;20199;-59
2023/04/30 10:27:57;;;;;;;7.00;5.30;;;17.60;99.90;;;;;;5077068;28;20572;-59
2023/04/30 10:30:24;;;;;;;7.00;4.67;;;17.80;99.90;;;;;;5075359;28;20547;-59
2023/04/30 10:32:54;;;;;;;5.93;5.00;;;17.80;99.90;;;;;;5073041;28;20823;-59
2023/04/30 10:35:44;;;;;;;5.63;4.57;;;17.70;99.90;;;;;;5076008;28;20233;-59
2023/04/30 10:38:20;;;;;;;9.40;5.70;;;18.10;99.90;;;;;;5074225;28;20251;-59
2023/04/30 10:40:48;;;;;;;6.70;5.23;;;18.20;99.90;;;;;;5072057;28;20202;-59
2023/04/30 10:43:18;;;;;;;6.30;5.10;;;17.70;99.90;;;;;;5069747;28;20206;-59
2023/04/30 10:45:45;;;;;;;6.17;5.40;;;17.70;99.90;;;;;;5070230;28;20207;-61
2023/04/30 10:48:15;;;;;;;6.67;4.90;;;18.00;99.90;;;;;;5069578;28;20254;-59
2023/04/30 10:50:43;;;;;;;7.13;5.37;;;18.50;99.90;;;;;;5069398;28;20210;-59
2023/04/30 10:53:18;;;;;;;6.07;5.47;;;18.20;99.90;;;;;;5065592;28;20191;-59
2023/04/30 10:56:12;;;;;;;6.67;5.03;;;18.10;99.90;;;;;;5060477;28;20222;-59
2023/04/30 10:58:39;;;;;;;6.53;5.37;;;18.30;99.90;;;;;;5053033;28;21012;-59
2023/04/30 11:01:07;;;;;;;6.63;5.23;;;18.60;99.90;;;;;;5071056;28;20612;-59
2023/04/30 11:03:36;;;;;;;6.40;4.70;;;18.20;99.90;;;;;;5049374;28;20206;-59
2023/04/30 11:06:13;;;;;;;7.30;4.83;;;18.20;99.90;;;;;;5071225;28;20215;-59
2023/04/30 11:08:45;;;;;;;6.53;5.40;;;18.20;99.90;;;;;;5051397;28;20203;-59
2023/04/30 11:11:19;;;;;;;5.17;4.73;;;18.20;99.90;;;;;;5074097;28;20312;-59
2023/04/30 11:13:56;;;;;;;5.67;4.37;;;18.50;99.90;;;;;;5070430;28;20213;-60
2023/04/30 11:16:30;;;;;;;7.03;5.67;;;18.70;99.90;;;;;;5073736;28;20301;-59
2023/04/30 11:19:12;;;;;;;6.07;4.40;;;18.70;99.90;;;;;;5069945;28;20234;-59
2023/04/30 11:22:02;;;;;;;7.27;5.03;;;18.30;99.90;;;;;;5067679;28;20765;-59
2023/04/30 11:24:54;;;;;;;4.13;3.77;;;18.90;99.90;;;;;;5061393;28;20202;-59
2023/04/30 11:27:26;;;;;;;5.50;4.30;;;19.10;99.90;;;;;;5052292;28;20245;-59
2023/04/30 11:29:54;;;;;;;4.83;3.80;;;19.30;99.90;;;;;;5046443;28;20930;-59
2023/04/30 11:32:23;;;;;;;5.13;4.63;;;19.50;99.90;;;;;;5047076;28;21186;-59
2023/04/30 11:34:51;;;;;;;5.00;4.47;;;20.00;99.90;;;;;;5063712;28;20591;-59
2023/04/30 11:37:29;;;;;;;5.33;4.60;;;19.50;99.90;;;;;;5061025;28;20201;-59
2023/04/30 11:39:59;;;;;;;3.80;3.37;;;19.60;99.90;;;;;;5078481;28;20231;-59
2023/04/30 11:42:25;;;;;;;5.00;4.20;;;20.00;99.90;;;;;;5074193;28;20575;-59
2023/04/30 11:44:52;;;;;;;4.30;3.87;;;20.50;99.90;;;;;;5075211;28;20210;-59
2023/04/30 11:47:19;;;;;;;4.87;4.33;;;21.00;99.90;;;;;;5060469;28;20210;-59
2023/04/30 11:49:50;;;;;;;5.17;3.63;;;21.50;99.90;;;;;;5075969;28;20211;-59
2023/04/30 11:52:20;;;;;;;5.53;3.67;;;21.40;99.90;;;;;;5078165;28;20216;-59
2023/04/30 11:54:47;;;;;;;3.30;3.00;;;20.90;99.90;;;;;;5076062;28;20210;-59
2023/04/30 11:57:14;;;;;;;4.57;3.80;;;20.90;99.90;;;;;;5079273;28;20589;-64
2023/04/30 11:59:42;;;;;;;4.90;3.87;;;21.00;99.90;;;;;;5075181;28;20443;-59
2023/04/30 12:02:14;;;;;;;3.87;2.80;;;20.70;99.90;;;;;;5077162;28;20205;-59
2023/04/30 12:04:45;;;;;;;5.27;3.93;;;21.10;99.90;;;;;;5057034;28;20209;-59
2023/04/30 12:07:12;;;;;;;3.90;3.50;;;21.70;99.90;;;;;;5075759;28;20201;-59
2023/04/30 12:09:55;;;;;;;4.83;3.77;;;22.10;99.90;;;;;;5077828;28;20286;-60
2023/04/30 12:12:29;;;;;;;3.10;2.77;;;22.20;99.90;;;;;;5078495;28;20213;-59
2023/04/30 12:14:57;;;;;;;3.70;3.27;;;21.00;99.90;;;;;;5057426;28;20221;-59
2023/04/30 12:17:34;;;;;;;4.50;3.73;;;21.20;99.90;;;;;;5059952;28;20322;-59
2023/04/30 12:20:01;;;;;;;2.80;2.40;;;21.00;99.90;;;;;;5078142;28;20257;-59
2023/04/30 12:22:28;;;;;;;3.33;3.03;;;20.60;99.90;;;;;;5077385;28;20278;-59
2023/04/30 12:24:58;;;;;;;3.97;3.13;;;21.10;99.90;;;;;;5077776;28;20261;-60
2023/04/30 12:27:25;;;;;;;3.23;2.77;;;21.50;99.90;;;;;;5075836;28;20237;-59
2023/04/30 12:29:53;;;;;;;3.23;2.77;;;21.30;99.90;;;;;;5056659;28;20199;-60
2023/04/30 12:32:21;;;;;;;3.17;2.87;;;20.60;99.90;;;;;;5077803;28;20218;-59
2023/04/30 12:34:49;;;;;;;3.87;2.70;;;21.00;99.90;;;;;;5077780;28;20279;-59
2023/04/30 12:37:16;;;;;;;2.90;2.67;;;21.20;99.90;;;;;;5078770;28;20913;-59
2023/04/30 12:39:43;;;;;;;3.20;2.73;;;21.70;99.90;;;;;;5078867;28;20214;-59
2023/04/30 12:42:10;;;;;;;5.10;3.07;;;21.50;99.90;;;;;;5078751;28;20207;-59
2023/04/30 12:44:44;;;;;;;3.77;3.20;;;20.70;99.90;;;;;;5075099;28;20244;-59
2023/04/30 12:47:11;;;;;;;3.27;2.90;;;20.60;99.90;;;;;;5058519;28;20294;-59
2023/04/30 12:49:38;;;;;;;4.27;3.20;;;20.20;99.90;;;;;;5078005;28;20195;-59
2023/04/30 12:52:10;;;;;;;5.40;3.77;;;20.30;99.90;;;;;;5077018;28;20198;-59
2023/04/30 12:54:38;;;;;;;3.67;3.20;;;20.10;99.90;;;;;;5074277;28;20285;-59